createdAt,value
2019-04-03T00:00:45.478Z,6.94
2019-04-03T00:02:21.714Z,6.95
2019-04-03T00:03:57.531Z,7.00
2019-04-03T00:05:35.018Z,7.00
2019-04-03T00:07:12.508Z,7.08
2019-04-03T00:08:48.572Z,7.07
2019-04-03T00:10:26.770Z,7.10
2019-04-03T00:12:05.145Z,7.11
2019-04-03T00:13:42.455Z,7.13
2019-04-03T00:15:18.599Z,7.16
2019-04-03T00:16:55.371Z,7.17
2019-04-03T00:18:31.079Z,7.17
2019-04-03T00:20:09.998Z,7.19
2019-04-03T00:21:45.571Z,7.19
2019-04-03T00:23:22.435Z,7.21
2019-04-03T00:24:58.780Z,7.26
2019-04-03T00:26:35.033Z,7.24
2019-04-03T00:28:10.663Z,7.23
2019-04-03T00:29:48.857Z,7.32
2019-04-03T00:31:24.882Z,7.29
2019-04-03T00:33:00.510Z,7.31
2019-04-03T00:34:39.118Z,7.36
2019-04-03T00:36:19.059Z,7.34
2019-04-03T00:37:54.017Z,7.35
2019-04-03T00:39:33.026Z,7.38
2019-04-03T00:41:09.194Z,7.39
2019-04-03T00:42:45.413Z,7.35
2019-04-03T00:44:20.991Z,7.35
2019-04-03T00:45:56.630Z,7.36
2019-04-03T00:47:32.239Z,7.41
2019-04-03T00:49:07.869Z,7.41
2019-04-03T00:50:43.552Z,7.38
2019-04-03T00:52:19.095Z,7.41
2019-04-03T00:53:55.885Z,7.39
2019-04-03T00:55:31.804Z,7.37
2019-04-03T00:57:07.102Z,7.37
2019-04-03T00:58:43.162Z,7.34
2019-04-03T01:00:19.054Z,7.32
2019-04-03T01:01:56.393Z,7.36
2019-04-03T01:03:31.993Z,7.32
2019-04-03T01:05:07.482Z,7.30
2019-04-03T01:06:43.515Z,7.32
2019-04-03T01:08:19.131Z,7.25
2019-04-03T01:09:55.013Z,7.23
2019-04-03T01:11:31.566Z,7.23
2019-04-03T01:13:06.945Z,7.21
2019-04-03T01:14:44.643Z,7.20
2019-04-03T01:16:20.197Z,7.19
2019-04-03T01:17:56.449Z,7.16
2019-04-03T01:19:32.135Z,7.14
2019-04-03T01:21:07.837Z,7.14
2019-04-03T01:22:43.398Z,7.09
2019-04-03T01:24:19.499Z,7.03
2019-04-03T01:25:54.836Z,7.03
2019-04-03T01:27:30.511Z,6.97
2019-04-03T01:29:06.060Z,6.96
2019-04-03T01:30:43.830Z,6.96
2019-04-03T01:32:19.113Z,7.00
2019-04-03T01:33:55.130Z,7.02
2019-04-03T01:35:30.622Z,7.02
2019-04-03T01:37:06.247Z,6.96
2019-04-03T01:38:41.599Z,6.95
2019-04-03T01:40:20.000Z,6.90
2019-04-03T01:41:54.834Z,6.83
2019-04-03T01:43:30.094Z,6.83
2019-04-03T01:45:10.530Z,6.89
2019-04-03T01:46:47.794Z,6.98
2019-04-03T01:48:23.397Z,6.92
2019-04-03T01:49:59.121Z,6.91
2019-04-03T01:51:34.545Z,6.90
2019-04-03T01:53:10.003Z,6.89
2019-04-03T01:54:45.950Z,6.89
2019-04-03T01:56:22.117Z,6.87
2019-04-03T01:57:58.173Z,6.84
2019-04-03T01:59:42.888Z,6.81
2019-04-03T02:01:24.819Z,6.75
2019-04-03T02:03:05.511Z,6.80
2019-04-03T02:04:43.987Z,6.79
2019-04-03T02:06:20.136Z,6.70
2019-04-03T02:07:56.007Z,6.64
2019-04-03T02:09:35.791Z,6.65
2019-04-03T02:11:11.391Z,6.67
2019-04-03T02:12:47.320Z,6.60
2019-04-03T02:14:22.864Z,6.65
2019-04-03T02:15:59.117Z,6.64
2019-04-03T02:17:34.904Z,6.56
2019-04-03T02:19:10.341Z,6.46
2019-04-03T02:20:45.864Z,6.47
2019-04-03T02:22:21.782Z,6.54
2019-04-03T02:24:00.849Z,6.52
2019-04-03T02:25:36.316Z,6.53
2019-04-03T02:27:12.357Z,6.52
2019-04-03T02:28:47.785Z,6.50
2019-04-03T02:30:26.041Z,6.50
2019-04-03T02:32:03.894Z,6.46
2019-04-03T02:33:39.943Z,6.39
2019-04-03T02:35:15.293Z,6.39
2019-04-03T02:36:53.840Z,6.31
2019-04-03T02:38:29.495Z,6.32
2019-04-03T02:40:06.019Z,6.39
2019-04-03T02:41:44.110Z,6.38
2019-04-03T02:43:20.880Z,6.39
2019-04-03T02:44:56.627Z,6.31
2019-04-03T02:46:32.073Z,6.24
2019-04-03T02:48:07.839Z,6.24
2019-04-03T02:49:43.882Z,6.28
2019-04-03T02:51:20.549Z,6.27
2019-04-03T02:52:57.973Z,6.27
2019-04-03T02:54:35.745Z,6.27
2019-04-03T02:56:13.017Z,6.25
2019-04-03T02:57:54.045Z,6.16
2019-04-03T02:59:29.409Z,6.11
2019-04-03T03:01:07.342Z,6.17
2019-04-03T03:02:45.357Z,6.18
2019-04-03T03:04:21.987Z,6.18
2019-04-03T03:06:00.716Z,6.20
2019-04-03T03:07:36.357Z,6.26
2019-04-03T03:09:13.538Z,6.17
2019-04-03T03:10:51.836Z,6.23
2019-04-03T03:12:27.809Z,6.23
2019-04-03T03:14:06.280Z,6.22
2019-04-03T03:15:41.601Z,6.27
2019-04-03T03:17:21.516Z,6.19
2019-04-03T03:18:55.458Z,6.17
2019-04-03T03:20:32.246Z,6.10
2019-04-03T03:22:07.667Z,6.15
2019-04-03T03:23:44.218Z,6.16
2019-04-03T03:25:20.604Z,6.15
2019-04-03T03:26:56.034Z,6.15
2019-04-03T03:28:31.585Z,6.13
2019-04-03T03:30:32.802Z,6.11
2019-04-03T03:32:11.560Z,6.09
2019-04-03T03:33:35.725Z,6.08
2019-04-03T03:35:14.417Z,6.08
2019-04-03T03:36:45.935Z,6.02
2019-04-03T03:38:21.735Z,6.01
2019-04-03T03:39:58.048Z,6.00
2019-04-03T03:41:33.486Z,6.04
2019-04-03T03:43:09.133Z,6.06
2019-04-03T03:44:47.211Z,6.06
2019-04-03T03:46:27.850Z,6.11
2019-04-03T03:48:03.737Z,6.08
2019-04-03T03:49:41.084Z,6.09
2019-04-03T03:51:16.572Z,6.00
2019-04-03T03:52:51.906Z,5.99
2019-04-03T03:54:28.247Z,5.92
2019-04-03T03:56:03.938Z,5.97
2019-04-03T03:57:40.444Z,5.99
2019-04-03T03:59:17.639Z,5.93
2019-04-03T04:00:57.599Z,5.95
2019-04-03T04:02:30.381Z,5.93
2019-04-03T04:04:05.877Z,5.91
2019-04-03T04:05:41.312Z,5.94
2019-04-03T04:07:16.927Z,5.97
2019-04-03T04:08:52.603Z,5.96
2019-04-03T04:10:29.044Z,5.91
2019-04-03T04:12:07.550Z,5.89
2019-04-03T04:13:42.980Z,5.89
2019-04-03T04:15:20.563Z,5.95
2019-04-03T04:16:56.980Z,5.94
2019-04-03T04:18:32.721Z,5.93
2019-04-03T04:20:08.436Z,5.95
2019-04-03T04:21:45.125Z,5.90
2019-04-03T04:23:24.518Z,5.93
2019-04-03T04:24:59.814Z,5.87
2019-04-03T04:26:35.798Z,5.88
2019-04-03T04:28:11.140Z,5.89
2019-04-03T04:29:46.374Z,5.83
2019-04-03T04:31:21.966Z,5.79
2019-04-03T04:33:00.591Z,5.80
2019-04-03T04:34:36.134Z,5.79
2019-04-03T04:36:11.685Z,5.80
2019-04-03T04:37:46.976Z,5.76
2019-04-03T04:39:26.509Z,5.73
2019-04-03T04:41:01.857Z,5.77
2019-04-03T04:42:37.031Z,5.75
2019-04-03T04:44:14.278Z,5.76
2019-04-03T04:45:49.759Z,5.78
2019-04-03T04:47:25.708Z,5.78
2019-04-03T04:49:04.078Z,5.73
2019-04-03T04:50:39.640Z,5.70
2019-04-03T04:52:18.688Z,5.70
2019-04-03T04:54:00.422Z,5.71
2019-04-03T04:55:36.038Z,5.66
2019-04-03T04:57:11.500Z,5.62
2019-04-03T04:58:47.051Z,5.64
2019-04-03T05:00:25.656Z,5.65
2019-04-03T05:02:01.794Z,5.62
2019-04-03T05:03:37.362Z,5.60
2019-04-03T05:05:27.211Z,5.64
2019-04-03T05:07:12.708Z,5.65
2019-04-03T05:08:48.346Z,5.71
2019-04-03T05:10:23.798Z,5.74
2019-04-03T05:11:59.336Z,5.65
2019-04-03T05:13:46.797Z,5.66
2019-04-03T05:15:41.107Z,5.69
2019-04-03T05:17:24.830Z,5.68
2019-04-03T05:19:09.447Z,5.60
2019-04-03T05:20:41.065Z,5.60
2019-04-03T05:22:19.702Z,5.70
2019-04-03T05:24:09.976Z,5.69
2019-04-03T05:25:33.981Z,5.61
2019-04-03T05:27:09.365Z,5.63
2019-04-03T05:28:55.687Z,5.63
2019-04-03T05:30:30.685Z,5.54
2019-04-03T05:32:09.611Z,5.51
2019-04-03T05:33:48.298Z,5.58
2019-04-03T05:35:31.410Z,5.64
2019-04-03T05:37:07.242Z,5.67
2019-04-03T05:38:43.082Z,5.69
2019-04-03T05:40:21.219Z,5.64
2019-04-03T05:41:59.519Z,5.63
2019-04-03T05:43:37.446Z,5.65
2019-04-03T05:45:19.941Z,5.72
2019-04-03T05:46:59.423Z,5.73
2019-04-03T05:48:33.930Z,5.75
2019-04-03T05:50:09.669Z,5.77
2019-04-03T05:51:45.216Z,5.80
2019-04-03T05:53:21.582Z,5.75
2019-04-03T05:54:57.629Z,5.69
2019-04-03T05:56:34.887Z,5.66
2019-04-03T05:58:15.358Z,5.67
2019-04-03T05:59:59.500Z,5.72
2019-04-03T06:01:29.586Z,5.76
2019-04-03T06:03:05.177Z,5.79
2019-04-03T06:04:41.593Z,5.80
2019-04-03T06:06:17.406Z,5.82
2019-04-03T06:07:54.507Z,5.85
2019-04-03T06:09:30.057Z,5.88
2019-04-03T06:11:09.855Z,5.87
2019-04-03T06:12:46.867Z,5.85
2019-04-03T06:14:23.512Z,5.93
2019-04-03T06:15:59.404Z,5.96
2019-04-03T06:17:36.868Z,5.99
2019-04-03T06:19:14.566Z,5.98
2019-04-03T06:20:50.694Z,6.06
2019-04-03T06:22:26.236Z,6.08
2019-04-03T06:24:05.197Z,6.02
2019-04-03T06:25:40.815Z,5.89
2019-04-03T06:27:20.323Z,5.83
2019-04-03T06:28:55.646Z,5.83
2019-04-03T06:30:33.856Z,5.80
2019-04-03T06:32:14.313Z,5.74
2019-04-03T06:33:51.337Z,5.78
2019-04-03T06:35:29.365Z,5.70
2019-04-03T06:37:12.449Z,5.63
2019-04-03T06:38:56.051Z,5.73
2019-04-03T06:40:35.155Z,5.76
2019-04-03T06:42:13.264Z,5.82
2019-04-03T06:43:50.841Z,5.79
2019-04-03T06:45:27.102Z,5.77
2019-04-03T06:47:03.203Z,5.78
2019-04-03T06:48:41.247Z,5.81
2019-04-03T06:50:17.909Z,5.84
2019-04-03T06:51:53.754Z,5.88
2019-04-03T06:53:32.352Z,5.73
2019-04-03T06:55:08.245Z,5.70
2019-04-03T06:56:45.644Z,5.72
2019-04-03T06:58:21.706Z,5.70
2019-04-03T06:59:57.403Z,5.64
2019-04-03T07:01:33.451Z,5.65
2019-04-03T07:03:10.741Z,5.59
2019-04-03T07:04:49.586Z,5.58
2019-04-03T07:06:33.519Z,5.54
2019-04-03T07:08:12.907Z,5.46
2019-04-03T07:09:50.835Z,5.33
2019-04-03T07:11:29.061Z,5.23
2019-04-03T07:13:05.761Z,5.14
2019-04-03T07:14:42.923Z,5.11
2019-04-03T07:16:22.724Z,5.19
2019-04-03T07:18:01.740Z,5.22
2019-04-03T07:19:40.314Z,5.12
2019-04-03T07:21:18.980Z,5.27
2019-04-03T07:22:59.068Z,5.31
2019-04-03T07:24:36.277Z,5.33
2019-04-03T07:26:14.332Z,5.25
2019-04-03T07:27:54.200Z,5.28
2019-04-03T07:29:38.940Z,5.26
2019-04-03T07:31:17.737Z,5.23
2019-04-03T07:33:11.799Z,5.28
2019-04-03T07:34:50.087Z,5.25
2019-04-03T07:36:25.707Z,5.30
2019-04-03T07:38:14.781Z,5.25
2019-04-03T07:39:54.773Z,5.24
2019-04-03T07:41:33.454Z,5.19
2019-04-03T07:43:13.867Z,4.97
2019-04-03T07:44:49.516Z,4.98
2019-04-03T07:46:25.754Z,4.94
2019-04-03T07:48:01.247Z,4.95
2019-04-03T07:49:40.574Z,4.95
2019-04-03T07:51:22.020Z,4.93
2019-04-03T07:52:57.884Z,4.86
2019-04-03T07:54:33.553Z,4.89
2019-04-03T07:56:13.347Z,4.76
2019-04-03T07:57:50.855Z,4.77
2019-04-03T07:59:35.871Z,4.73
2019-04-03T08:01:18.792Z,4.58
2019-04-03T08:02:54.605Z,4.58
2019-04-03T08:04:30.339Z,4.51
2019-04-03T08:06:09.121Z,4.51
2019-04-03T08:07:44.854Z,4.54
2019-04-03T08:09:21.952Z,4.49
2019-04-03T08:10:57.526Z,4.49
2019-04-03T08:12:36.094Z,4.53
2019-04-03T08:14:12.306Z,4.45
2019-04-03T08:15:49.405Z,4.36
2019-04-03T08:17:29.389Z,4.33
2019-04-03T08:19:07.810Z,4.32
2019-04-03T08:20:57.641Z,4.32
2019-04-03T08:22:49.369Z,4.33
2019-04-03T08:24:28.453Z,4.38
2019-04-03T08:26:05.185Z,4.38
2019-04-03T08:27:41.319Z,4.42
2019-04-03T08:29:16.774Z,4.58
2019-04-03T08:30:55.678Z,4.64
2019-04-03T08:32:37.052Z,4.75
2019-04-03T08:34:16.713Z,4.67
2019-04-03T08:35:49.331Z,4.67
2019-04-03T08:37:31.633Z,4.84
2019-04-03T08:39:17.906Z,5.01
2019-04-03T08:40:56.014Z,5.01
2019-04-03T08:42:34.050Z,5.22
2019-04-03T08:44:23.018Z,4.98
2019-04-03T08:45:59.626Z,5.04
2019-04-03T08:47:38.200Z,5.12
2019-04-03T08:49:14.140Z,5.21
2019-04-03T08:50:52.826Z,5.35
2019-04-03T08:52:31.341Z,5.39
2019-04-03T08:54:10.662Z,5.23
2019-04-03T08:55:49.896Z,5.22
2019-04-03T08:57:27.870Z,5.16
2019-04-03T08:59:03.338Z,5.15
2019-04-03T09:00:43.041Z,5.04
2019-04-03T09:02:20.106Z,5.10
2019-04-03T09:03:55.694Z,5.21
2019-04-03T09:05:32.380Z,5.25
2019-04-03T09:07:10.037Z,5.30
2019-04-03T09:08:51.010Z,5.36
2019-04-03T09:10:31.602Z,5.23
2019-04-03T09:12:08.319Z,5.39
2019-04-03T09:13:44.956Z,5.25
2019-04-03T09:15:42.971Z,5.35
2019-04-03T09:17:19.126Z,5.40
2019-04-03T09:19:02.353Z,5.42
2019-04-03T09:20:37.949Z,5.47
2019-04-03T09:22:54.495Z,5.35
2019-04-03T09:24:31.517Z,5.39
2019-04-03T09:26:11.303Z,5.39
2019-04-03T09:28:00.726Z,5.54
2019-04-03T09:29:45.178Z,5.59
2019-04-03T09:31:36.746Z,5.59
2019-04-03T09:33:13.422Z,5.59
2019-04-03T09:34:48.845Z,5.58
2019-04-03T09:36:25.858Z,5.53
2019-04-03T09:38:04.444Z,5.48
2019-04-03T09:39:40.638Z,5.46
2019-04-03T09:41:19.201Z,5.50
2019-04-03T09:43:00.450Z,5.60
2019-04-03T09:44:41.800Z,5.53
2019-04-03T09:46:21.847Z,5.55
2019-04-03T09:48:00.874Z,5.57
2019-04-03T09:49:43.747Z,5.50
2019-04-03T09:51:22.794Z,5.46
2019-04-03T09:53:01.624Z,5.44
2019-04-03T09:54:38.341Z,5.49
2019-04-03T09:56:16.989Z,5.45
2019-04-03T09:57:53.531Z,5.52
2019-04-03T09:59:30.500Z,5.39
2019-04-03T10:01:19.975Z,5.36
2019-04-03T10:02:58.539Z,5.30
2019-04-03T10:04:36.956Z,5.24
2019-04-03T10:06:19.863Z,5.32
2019-04-03T10:08:21.594Z,5.36
2019-04-03T10:11:55.399Z,5.59
2019-04-03T10:13:34.952Z,5.54
2019-04-03T10:15:13.366Z,5.56
2019-04-03T10:16:50.765Z,5.65
2019-04-03T10:18:28.581Z,5.51
2019-04-03T10:20:08.326Z,5.71
2019-04-03T10:21:55.453Z,5.68
2019-04-03T10:23:31.538Z,5.70
2019-04-03T10:25:14.509Z,5.73
2019-04-03T10:27:00.860Z,5.77
2019-04-03T10:28:37.753Z,5.87
2019-04-03T10:30:42.977Z,5.80
2019-04-03T10:33:04.689Z,5.94
2019-04-03T10:34:46.445Z,5.85
2019-04-03T10:36:23.092Z,5.89
2019-04-03T10:38:06.325Z,5.91
2019-04-03T10:39:44.689Z,6.11
2019-04-03T10:41:23.262Z,6.11
2019-04-03T10:43:05.742Z,6.21
2019-04-03T10:44:41.286Z,6.04
2019-04-03T10:46:20.164Z,6.16
2019-04-03T10:48:07.028Z,6.22
2019-04-03T10:49:47.746Z,6.31
2019-04-03T10:51:23.201Z,6.36
2019-04-03T10:53:09.295Z,6.23
2019-04-03T10:54:56.815Z,6.29
2019-04-03T10:56:58.715Z,6.39
2019-04-03T10:58:42.250Z,6.44
2019-04-03T11:00:18.317Z,6.42
2019-04-03T11:01:53.890Z,6.38
2019-04-03T11:03:29.805Z,6.37
2019-04-03T11:05:05.590Z,6.16
2019-04-03T11:06:43.261Z,6.21
2019-04-03T11:08:21.493Z,6.35
2019-04-03T11:10:01.139Z,6.46
2019-04-03T11:11:38.090Z,6.65
2019-04-03T11:13:18.348Z,6.73
2019-04-03T11:14:55.304Z,6.61
2019-04-03T11:16:32.431Z,6.82
2019-04-03T11:18:08.469Z,7.27
2019-04-03T11:19:57.406Z,7.29
2019-04-03T11:21:43.236Z,7.77
2019-04-03T11:23:35.774Z,8.20
2019-04-03T11:24:58.102Z,8.75
2019-04-03T11:26:34.390Z,8.98
2019-04-03T11:28:17.674Z,9.29
2019-04-03T11:29:58.370Z,9.29
2019-04-03T11:31:41.468Z,9.34
2019-04-03T11:33:17.403Z,9.25
2019-04-03T11:35:06.231Z,9.19
2019-04-03T11:36:44.189Z,9.23
2019-04-03T11:38:40.219Z,9.10
2019-04-03T11:40:25.488Z,9.12
2019-04-03T11:42:04.800Z,8.87
2019-04-03T11:43:46.888Z,9.11
2019-04-03T11:45:27.078Z,9.10
2019-04-03T11:47:07.078Z,9.33
2019-04-03T11:48:49.230Z,9.55
2019-04-03T11:50:38.914Z,9.33
2019-04-03T11:52:15.825Z,9.24
2019-04-03T11:53:52.614Z,9.43
2019-04-03T11:55:32.740Z,9.14
2019-04-03T11:57:16.418Z,9.39
2019-04-03T11:58:53.481Z,9.59
2019-04-03T12:00:32.554Z,9.91
2019-04-03T12:02:09.546Z,9.82
2019-04-03T12:03:50.882Z,9.79
2019-04-03T12:05:28.184Z,9.73
2019-04-03T12:07:04.290Z,9.70
2019-04-03T12:08:48.258Z,9.42
2019-04-03T12:10:30.094Z,9.24
2019-04-03T12:12:11.298Z,9.02
2019-04-03T12:13:47.113Z,8.92
2019-04-03T12:15:26.371Z,8.75
2019-04-03T12:17:01.862Z,8.91
2019-04-03T12:18:42.716Z,8.82
2019-04-03T12:20:22.442Z,8.67
2019-04-03T12:22:05.406Z,8.44
2019-04-03T12:23:47.320Z,8.16
2019-04-03T12:25:23.503Z,8.22
2019-04-03T12:27:16.271Z,8.08
2019-04-03T12:28:52.242Z,7.89
2019-04-03T12:30:28.225Z,7.79
2019-04-03T12:32:09.158Z,7.68
2019-04-03T12:33:54.562Z,7.99
2019-04-03T12:35:24.235Z,7.80
2019-04-03T12:37:01.350Z,7.66
2019-04-03T12:38:36.931Z,7.78
2019-04-03T12:40:17.222Z,7.83
2019-04-03T12:41:58.290Z,8.03
2019-04-03T12:43:35.068Z,8.03
2019-04-03T12:45:18.316Z,7.77
2019-04-03T12:46:51.910Z,7.79
2019-04-03T12:48:29.448Z,7.80
2019-04-03T12:50:11.815Z,7.97
2019-04-03T12:51:46.649Z,8.09
2019-04-03T12:53:24.083Z,8.12
2019-04-03T12:55:04.113Z,8.05
2019-04-03T12:56:40.599Z,8.15
2019-04-03T12:58:24.253Z,8.12
2019-04-03T12:59:59.959Z,8.17
2019-04-03T13:01:59.905Z,8.25
2019-04-03T13:03:39.523Z,8.20
2019-04-03T13:05:16.666Z,8.23
2019-04-03T13:06:54.738Z,8.32
2019-04-03T13:08:30.597Z,8.27
2019-04-03T13:10:07.883Z,8.11
2019-04-03T13:11:44.353Z,8.25
2019-04-03T13:13:23.083Z,8.32
2019-04-03T13:15:07.120Z,8.20
2019-04-03T13:16:47.033Z,8.39
2019-04-03T13:18:26.896Z,8.27
2019-04-03T13:20:08.620Z,8.26
2019-04-03T13:21:46.137Z,8.36
2019-04-03T13:23:27.672Z,8.57
2019-04-03T13:25:06.307Z,8.53
2019-04-03T13:26:45.962Z,8.31
2019-04-03T13:28:21.989Z,8.42
2019-04-03T13:30:04.708Z,8.42
2019-04-03T13:31:47.077Z,8.54
2019-04-03T13:33:25.489Z,8.51
2019-04-03T13:35:09.190Z,8.75
2019-04-03T13:36:44.846Z,8.87
2019-04-03T13:38:23.221Z,8.56
2019-04-03T13:40:05.632Z,8.80
2019-04-03T13:41:42.434Z,8.67
2019-04-03T13:43:20.490Z,8.80
2019-04-03T13:44:57.962Z,8.70
2019-04-03T13:46:36.520Z,8.56
2019-04-03T13:48:13.447Z,8.43
2019-04-03T13:49:50.083Z,8.50
2019-04-03T13:51:30.748Z,8.53
2019-04-03T13:53:13.602Z,8.43
2019-04-03T13:54:53.286Z,8.44
2019-04-03T13:56:44.552Z,8.44
2019-04-03T13:58:21.142Z,8.38
2019-04-03T14:00:01.615Z,8.41
2019-04-03T14:01:39.486Z,8.17
2019-04-03T14:03:18.225Z,8.28
2019-04-03T14:04:54.671Z,8.37
2019-04-03T14:06:31.004Z,8.44
2019-04-03T14:08:07.395Z,8.23
2019-04-03T14:09:50.226Z,8.21
2019-04-03T14:11:23.259Z,8.19
2019-04-03T14:13:02.199Z,8.18
2019-04-03T14:14:42.250Z,7.91
2019-04-03T14:16:22.185Z,7.92
2019-04-03T14:17:59.044Z,7.89
2019-04-03T14:19:43.377Z,7.85
2019-04-03T14:21:17.492Z,7.64
2019-04-03T14:22:55.692Z,7.45
2019-04-03T14:24:41.508Z,7.44
2019-04-03T14:26:12.950Z,7.39
2019-04-03T14:27:54.563Z,7.38
2019-04-03T14:29:33.742Z,7.36
2019-04-03T14:31:09.467Z,7.35
2019-04-03T14:32:55.265Z,7.34
2019-04-03T14:35:31.673Z,7.31
2019-04-03T14:36:52.679Z,7.38
2019-04-03T14:38:30.999Z,7.36
2019-04-03T14:40:11.520Z,7.42
2019-04-03T14:41:53.618Z,7.34
2019-04-03T14:43:36.403Z,7.44
2019-04-03T14:45:26.872Z,7.46
2019-04-03T14:47:05.761Z,7.65
2019-04-03T14:48:46.124Z,7.80
2019-04-03T14:50:24.737Z,7.75
2019-04-03T14:52:03.480Z,7.85
2019-04-03T14:53:39.062Z,7.90
2019-04-03T14:55:21.919Z,7.85
2019-04-03T14:56:56.759Z,7.98
2019-04-03T14:58:33.804Z,7.83
2019-04-03T15:00:24.910Z,7.86
2019-04-03T15:01:50.675Z,7.78
2019-04-03T15:03:27.964Z,7.81
2019-04-03T15:05:06.645Z,7.72
2019-04-03T15:06:41.445Z,7.90
2019-04-03T15:08:20.295Z,8.01
2019-04-03T15:10:01.262Z,8.18
2019-04-03T15:11:39.529Z,8.21
2019-04-03T15:13:16.815Z,8.22
2019-04-03T15:15:36.007Z,8.18
2019-04-03T15:17:11.609Z,8.02
2019-04-03T15:18:52.513Z,8.02
2019-04-03T15:20:29.620Z,8.05
2019-04-03T15:22:07.012Z,8.08
2019-04-03T15:23:53.915Z,8.08
2019-04-03T15:25:29.595Z,7.87
2019-04-03T15:27:05.708Z,7.76
2019-04-03T15:28:46.501Z,7.85
2019-04-03T15:30:25.975Z,7.79
2019-04-03T15:32:06.249Z,7.66
2019-04-03T15:33:46.995Z,7.68
2019-04-03T15:35:23.105Z,7.74
2019-04-03T15:37:08.536Z,7.67
2019-04-03T15:38:53.305Z,7.71
2019-04-03T15:40:29.823Z,7.59
2019-04-03T15:42:08.524Z,7.53
2019-04-03T15:43:52.041Z,7.36
2019-04-03T15:45:30.134Z,7.28
2019-04-03T15:47:10.418Z,7.19
2019-04-03T15:48:45.476Z,7.21
2019-04-03T15:50:21.940Z,7.18
2019-04-03T15:51:57.325Z,7.17
2019-04-03T15:53:38.440Z,7.06
2019-04-03T15:55:15.447Z,7.06
2019-04-03T15:56:51.264Z,7.08
2019-04-03T15:58:32.998Z,7.00
2019-04-03T16:00:13.820Z,6.87
2019-04-03T16:01:52.623Z,6.92
2019-04-03T16:03:36.627Z,6.92
2019-04-03T16:05:13.476Z,6.94
2019-04-03T16:06:50.714Z,6.93
2019-04-03T16:08:27.769Z,7.01
2019-04-03T16:10:11.660Z,7.01
2019-04-03T16:11:50.465Z,6.95
2019-04-03T16:13:35.076Z,6.98
2019-04-03T16:15:17.706Z,7.05
2019-04-03T16:17:03.785Z,7.09
2019-04-03T16:18:40.923Z,7.14
2019-04-03T16:20:17.863Z,7.15
2019-04-03T16:22:04.815Z,7.10
2019-04-03T16:23:40.623Z,7.08
2019-04-03T16:25:20.046Z,7.07
2019-04-03T16:26:57.663Z,7.04
2019-04-03T16:28:39.392Z,7.00
2019-04-03T16:30:19.290Z,6.89
2019-04-03T16:31:57.228Z,6.83
2019-04-03T16:33:33.407Z,6.93
2019-04-03T16:35:17.698Z,6.91
2019-04-03T16:36:55.392Z,6.96
2019-04-03T16:38:36.359Z,6.83
2019-04-03T16:41:01.359Z,6.88
2019-04-03T16:43:37.457Z,6.84
2019-04-03T16:45:19.514Z,6.74
2019-04-03T16:47:12.920Z,6.69
2019-04-03T16:48:52.244Z,6.66
2019-04-03T16:50:28.293Z,6.70
2019-04-03T16:52:19.241Z,6.73
2019-04-03T16:53:42.384Z,6.72
2019-04-03T16:55:17.852Z,6.69
2019-04-03T16:56:57.599Z,6.66
2019-04-03T16:58:38.459Z,6.64
2019-04-03T17:00:21.143Z,6.59
2019-04-03T17:01:56.862Z,6.54
2019-04-03T17:03:33.847Z,6.52
2019-04-03T17:05:13.421Z,6.48
2019-04-03T17:06:54.630Z,6.43
2019-04-03T17:08:45.920Z,6.37
2019-04-03T17:10:22.118Z,6.34
2019-04-03T17:11:58.451Z,6.31
2019-04-03T17:13:38.546Z,6.23
2019-04-03T17:15:21.498Z,6.18
2019-04-03T17:16:58.352Z,6.13
2019-04-03T17:18:34.514Z,6.14
2019-04-03T17:20:10.616Z,6.15
2019-04-03T17:21:49.473Z,6.04
2019-04-03T17:23:25.607Z,6.07
2019-04-03T17:25:06.735Z,6.04
2019-04-03T17:26:48.771Z,6.04
2019-04-03T17:28:19.944Z,6.01
2019-04-03T17:30:00.443Z,5.96
2019-04-03T17:31:43.006Z,5.94
2019-04-03T17:33:19.083Z,5.98
2019-04-03T17:34:57.573Z,5.93
2019-04-03T17:36:36.798Z,5.87
2019-04-03T17:38:14.751Z,5.86
2019-04-03T17:39:53.823Z,5.82
2019-04-03T17:41:37.917Z,5.83
2019-04-03T17:43:15.577Z,5.81
2019-04-03T17:44:52.367Z,5.70
2019-04-03T17:46:31.262Z,5.75
2019-04-03T17:48:08.722Z,5.73
2019-04-03T17:50:06.302Z,5.70
2019-04-03T17:51:42.313Z,5.62
2019-04-03T17:53:21.675Z,5.56
2019-04-03T17:54:59.846Z,5.57
2019-04-03T17:56:43.711Z,5.53
2019-04-03T17:58:27.963Z,5.49
2019-04-03T18:00:16.889Z,5.51
2019-04-03T18:01:55.040Z,5.42
2019-04-03T18:03:34.160Z,5.31
2019-04-03T18:05:21.103Z,5.28
2019-04-03T18:07:46.702Z,5.20
2019-04-03T18:14:24.786Z,5.02
2019-04-03T18:16:02.690Z,4.99
2019-04-03T18:17:38.298Z,4.99
2019-04-03T18:19:22.753Z,4.98
2019-04-03T18:21:01.065Z,4.92
2019-04-03T18:22:41.688Z,4.86
2019-04-03T18:24:23.212Z,4.85
2019-04-03T18:26:03.149Z,4.83
2019-04-03T18:27:46.565Z,4.84
2019-04-03T18:29:30.308Z,4.74
2019-04-03T18:31:06.267Z,4.75
2019-04-03T18:32:45.507Z,4.78
2019-04-03T18:34:21.878Z,4.78
2019-04-03T18:36:03.314Z,4.68
2019-04-03T18:37:40.899Z,4.65
2019-04-03T18:39:21.244Z,4.67
2019-04-03T18:40:58.451Z,4.65
2019-04-03T18:42:39.531Z,4.66
2019-04-03T18:44:22.419Z,4.64
2019-04-03T18:46:08.695Z,4.60
2019-04-03T18:48:04.308Z,4.60
2019-04-03T18:49:48.000Z,4.58
2019-04-03T18:51:27.196Z,4.54
2019-04-03T18:53:09.576Z,4.60
2019-04-03T18:54:46.297Z,4.54
2019-04-03T18:56:26.356Z,4.54
2019-04-03T18:58:05.782Z,4.55
2019-04-03T18:59:46.790Z,4.49
2019-04-03T19:01:32.580Z,4.52
2019-04-03T19:05:01.996Z,4.44
2019-04-03T19:06:32.616Z,4.47
2019-04-03T19:08:13.346Z,4.49
2019-04-03T19:09:45.743Z,4.54
2019-04-03T19:11:25.681Z,4.52
2019-04-03T19:13:06.607Z,4.57
2019-04-03T19:14:51.106Z,4.49
2019-04-03T19:16:29.800Z,4.49
2019-04-03T19:18:18.975Z,4.49
2019-04-03T19:19:48.343Z,4.50
2019-04-03T19:21:33.530Z,4.47
2019-04-03T19:23:13.811Z,4.49
2019-04-03T19:24:50.421Z,4.45
2019-04-03T19:26:35.290Z,4.48
2019-04-03T19:28:13.347Z,4.39
2019-04-03T19:29:48.943Z,4.46
2019-04-03T19:31:27.607Z,4.46
2019-04-03T19:33:03.569Z,4.50
2019-04-03T19:34:44.469Z,4.39
2019-04-03T19:36:21.745Z,4.43
2019-04-03T19:38:08.100Z,4.44
2019-04-03T19:39:47.772Z,4.41
2019-04-03T19:41:29.573Z,4.38
2019-04-03T19:43:10.605Z,4.36
2019-04-03T19:44:47.211Z,4.34
2019-04-03T19:46:31.759Z,4.24
2019-04-03T19:48:13.328Z,4.29
2019-04-03T19:50:03.929Z,4.24
2019-04-03T19:51:45.434Z,4.30
2019-04-03T19:53:28.032Z,4.35
2019-04-03T19:55:09.644Z,4.33
2019-04-03T19:56:48.121Z,4.30
2019-04-03T19:58:29.616Z,4.27
2019-04-03T20:00:16.821Z,4.24
2019-04-03T20:01:52.561Z,4.17
2019-04-03T20:03:28.151Z,4.21
2019-04-03T20:05:12.200Z,4.18
2019-04-03T20:06:54.617Z,4.12
2019-04-03T20:08:30.651Z,4.09
2019-04-03T20:10:08.293Z,4.11
2019-04-03T20:11:47.261Z,4.06
2019-04-03T20:13:28.093Z,4.04
2019-04-03T20:15:06.447Z,4.05
2019-04-03T20:16:41.901Z,4.08
2019-04-03T20:18:25.587Z,4.11
2019-04-03T20:19:59.831Z,4.15
2019-04-03T20:21:35.967Z,4.16
2019-04-03T20:23:36.822Z,4.10
2019-04-03T20:25:26.695Z,4.03
2019-04-03T20:27:11.948Z,4.09
2019-04-03T20:28:50.388Z,4.07
2019-04-03T20:30:32.812Z,4.02
2019-04-03T20:32:12.240Z,4.00
2019-04-03T20:34:01.256Z,4.07
2019-04-03T20:35:42.486Z,4.11
2019-04-03T20:37:26.194Z,4.13
2019-04-03T20:39:07.389Z,3.99
2019-04-03T20:40:47.654Z,4.00
2019-04-03T20:42:24.499Z,4.00
2019-04-03T20:44:04.663Z,4.02
2019-04-03T20:45:41.966Z,4.00
2019-04-03T20:47:26.870Z,4.03
2019-04-03T20:49:06.753Z,4.00
2019-04-03T20:50:46.112Z,4.02
2019-04-03T20:52:25.273Z,4.00
2019-04-03T20:54:06.164Z,4.01
2019-04-03T20:55:44.283Z,4.00
2019-04-03T20:57:23.555Z,4.03
2019-04-03T20:59:04.795Z,4.00
2019-04-03T21:00:42.546Z,3.99
2019-04-03T21:02:18.498Z,3.95
2019-04-03T21:03:54.058Z,3.89
2019-04-03T21:05:34.041Z,3.94
2019-04-03T21:07:19.294Z,3.90
2019-04-03T21:09:00.767Z,3.94
2019-04-03T21:10:51.304Z,3.94
2019-04-03T21:12:31.058Z,3.92
2019-04-03T21:14:10.967Z,3.95
2019-04-03T21:15:47.611Z,3.91
2019-04-03T21:17:27.343Z,3.87
2019-04-03T21:19:22.970Z,3.81
2019-04-03T21:21:01.559Z,3.86
2019-04-03T21:22:41.743Z,3.88
2019-04-03T21:24:19.969Z,3.92
2019-04-03T21:26:02.865Z,3.95
2019-04-03T21:27:40.118Z,3.95
2019-04-03T21:29:17.296Z,3.90
2019-04-03T21:30:54.897Z,3.89
2019-04-03T21:32:31.484Z,3.92
2019-04-03T21:34:22.369Z,3.98
2019-04-03T21:35:57.828Z,3.93
2019-04-03T21:37:33.668Z,3.96
2019-04-03T21:39:14.462Z,3.89
2019-04-03T21:40:55.762Z,3.93
2019-04-03T21:42:30.818Z,3.91
2019-04-03T21:44:06.432Z,4.01
2019-04-03T21:45:42.388Z,3.99
2019-04-03T21:47:20.552Z,3.98
2019-04-03T21:48:56.084Z,4.03
2019-04-03T21:50:32.383Z,3.94
2019-04-03T21:52:08.744Z,4.01
2019-04-03T21:53:44.740Z,3.93
2019-04-03T21:55:20.625Z,3.88
2019-04-03T21:56:56.157Z,3.91
2019-04-03T21:58:32.380Z,3.88
2019-04-03T22:00:13.207Z,3.93
2019-04-03T22:01:46.776Z,3.98
2019-04-03T22:03:22.456Z,3.89
2019-04-03T22:04:58.497Z,3.92
2019-04-03T22:06:34.250Z,3.93
2019-04-03T22:08:10.916Z,3.90
2019-04-03T22:09:46.399Z,3.89
2019-04-03T22:11:25.429Z,3.94